sensor_id;sensor_type;location;lat;lon;timestamp;P1;durP1;ratioP1;P2;durP2;ratioP2
29384;SDS011;16367;48.736;9.218;2024-03-23T00:55:13;4.68;;;1.95;;
29384;SDS011;16367;48.736;9.218;2024-03-23T00:57:14;6.90;;;2.28;;
29384;SDS011;16367;48.736;9.218;2024-03-23T00:59:15;7.57;;;2.35;;
29384;SDS011;16367;48.736;9.218;2024-03-23T01:01:15;6.32;;;2.20;;
29384;SDS011;16367;48.736;9.218;2024-03-23T01:03:16;4.10;;;1.90;;
29384;SDS011;16367;48.736;9.218;2024-03-23T01:05:17;5.50;;;2.38;;
29384;SDS011;16367;48.736;9.218;2024-03-23T01:07:17;4.93;;;2.38;;
29384;SDS011;16367;48.736;9.218;2024-03-23T01:09:19;5.55;;;2.00;;
29384;SDS011;16367;48.736;9.218;2024-03-23T01:11:20;4.72;;;1.80;;
29384;SDS011;16367;48.736;9.218;2024-03-23T01:13:21;4.50;;;2.05;;
29384;SDS011;16367;48.736;9.218;2024-03-23T01:15:22;4.00;;;1.95;;
29384;SDS011;16367;48.736;9.218;2024-03-23T01:17:22;5.88;;;1.95;;
29384;SDS011;16367;48.736;9.218;2024-03-23T01:19:23;4.88;;;2.15;;
29384;SDS011;16367;48.736;9.218;2024-03-23T01:21:24;5.78;;;1.83;;
29384;SDS011;16367;48.736;9.218;2024-03-23T01:23:24;7.45;;;2.50;;
29384;SDS011;16367;48.736;9.218;2024-03-23T01:25:26;4.38;;;1.55;;
29384;SDS011;16367;48.736;9.218;2024-03-23T01:27:27;5.75;;;2.53;;
29384;SDS011;16367;48.736;9.218;2024-03-23T01:29:28;4.18;;;1.65;;
29384;SDS011;16367;48.736;9.218;2024-03-23T01:31:28;4.18;;;1.70;;
29384;SDS011;16367;48.736;9.218;2024-03-23T01:33:29;6.32;;;1.83;;
29384;SDS011;16367;48.736;9.218;2024-03-23T01:35:30;3.53;;;1.50;;
29384;SDS011;16367;48.736;9.218;2024-03-23T01:37:31;3.95;;;1.65;;
29384;SDS011;16367;48.736;9.218;2024-03-23T01:39:32;4.55;;;1.83;;
29384;SDS011;16367;48.736;9.218;2024-03-23T01:41:34;4.68;;;1.70;;
29384;SDS011;16367;48.736;9.218;2024-03-23T01:43:34;3.50;;;1.40;;
29384;SDS011;16367;48.736;9.218;2024-03-23T01:45:35;6.13;;;1.95;;
29384;SDS011;16367;48.736;9.218;2024-03-23T01:47:37;4.65;;;1.80;;
29384;SDS011;16367;48.736;9.218;2024-03-23T01:49:37;3.95;;;1.52;;
29384;SDS011;16367;48.736;9.218;2024-03-23T01:51:38;4.13;;;1.60;;
29384;SDS011;16367;48.736;9.218;2024-03-23T01:53:39;4.72;;;1.90;;
29384;SDS011;16367;48.736;9.218;2024-03-23T01:55:40;4.47;;;1.58;;
29384;SDS011;16367;48.736;9.218;2024-03-23T01:57:42;4.75;;;1.75;;
29384;SDS011;16367;48.736;9.218;2024-03-23T01:59:43;3.97;;;1.35;;
29384;SDS011;16367;48.736;9.218;2024-03-23T02:01:43;4.78;;;1.83;;
29384;SDS011;16367;48.736;9.218;2024-03-23T02:03:44;6.18;;;1.77;;
29384;SDS011;16367;48.736;9.218;2024-03-23T02:05:45;3.97;;;1.80;;
29384;SDS011;16367;48.736;9.218;2024-03-23T02:07:45;4.70;;;1.80;;
29384;SDS011;16367;48.736;9.218;2024-03-23T02:09:46;4.03;;;1.42;;
29384;SDS011;16367;48.736;9.218;2024-03-23T02:11:47;5.93;;;1.90;;
29384;SDS011;16367;48.736;9.218;2024-03-23T02:13:49;6.43;;;1.65;;
29384;SDS011;16367;48.736;9.218;2024-03-23T02:15:50;4.10;;;1.67;;
29384;SDS011;16367;48.736;9.218;2024-03-23T02:17:50;6.30;;;1.65;;
29384;SDS011;16367;48.736;9.218;2024-03-23T02:19:51;4.32;;;1.70;;
29384;SDS011;16367;48.736;9.218;2024-03-23T02:21:52;4.53;;;1.70;;
29384;SDS011;16367;48.736;9.218;2024-03-23T02:23:54;4.18;;;1.70;;
29384;SDS011;16367;48.736;9.218;2024-03-23T02:25:55;4.97;;;2.00;;
29384;SDS011;16367;48.736;9.218;2024-03-23T02:27:55;4.28;;;1.42;;
29384;SDS011;16367;48.736;9.218;2024-03-23T02:29:56;4.25;;;1.80;;
29384;SDS011;16367;48.736;9.218;2024-03-23T02:31:57;4.88;;;1.60;;
29384;SDS011;16367;48.736;9.218;2024-03-23T02:33:57;4.65;;;1.77;;
29384;SDS011;16367;48.736;9.218;2024-03-23T02:35:58;6.05;;;1.83;;
29384;SDS011;16367;48.736;9.218;2024-03-23T02:37:59;4.53;;;1.83;;
29384;SDS011;16367;48.736;9.218;2024-03-23T02:40:01;4.45;;;1.67;;
29384;SDS011;16367;48.736;9.218;2024-03-23T02:42:02;4.57;;;1.90;;
29384;SDS011;16367;48.736;9.218;2024-03-23T02:44:02;4.57;;;1.90;;
29384;SDS011;16367;48.736;9.218;2024-03-23T02:46:03;4.03;;;1.52;;
29384;SDS011;16367;48.736;9.218;2024-03-23T02:48:04;6.25;;;1.90;;
29384;SDS011;16367;48.736;9.218;2024-03-23T02:50:06;7.20;;;2.03;;
29384;SDS011;16367;48.736;9.218;2024-03-23T02:52:07;4.43;;;1.65;;
29384;SDS011;16367;48.736;9.218;2024-03-23T02:54:08;4.28;;;1.73;;
29384;SDS011;16367;48.736;9.218;2024-03-23T02:56:10;4.32;;;1.70;;
29384;SDS011;16367;48.736;9.218;2024-03-23T02:58:10;4.53;;;1.67;;
29384;SDS011;16367;48.736;9.218;2024-03-23T03:00:12;6.55;;;1.83;;
29384;SDS011;16367;48.736;9.218;2024-03-23T03:02:13;5.53;;;2.05;;
29384;SDS011;16367;48.736;9.218;2024-03-23T03:04:14;4.07;;;1.55;;
29384;SDS011;16367;48.736;9.218;2024-03-23T03:06:22;4.45;;;1.85;;
29384;SDS011;16367;48.736;9.218;2024-03-23T03:08:23;5.68;;;1.60;;
29384;SDS011;16367;48.736;9.218;2024-03-23T03:10:24;4.00;;;1.85;;
29384;SDS011;16367;48.736;9.218;2024-03-23T03:12:26;6.82;;;2.60;;
29384;SDS011;16367;48.736;9.218;2024-03-23T03:14:26;6.63;;;2.00;;
29384;SDS011;16367;48.736;9.218;2024-03-23T03:16:27;4.45;;;1.70;;
29384;SDS011;16367;48.736;9.218;2024-03-23T03:18:28;4.13;;;1.75;;
29384;SDS011;16367;48.736;9.218;2024-03-23T03:20:28;4.72;;;2.10;;
29384;SDS011;16367;48.736;9.218;2024-03-23T03:22:29;6.85;;;1.98;;
29384;SDS011;16367;48.736;9.218;2024-03-23T03:24:30;4.75;;;1.80;;
29384;SDS011;16367;48.736;9.218;2024-03-23T03:26:31;4.65;;;1.88;;
29384;SDS011;16367;48.736;9.218;2024-03-23T03:28:33;4.70;;;1.80;;
29384;SDS011;16367;48.736;9.218;2024-03-23T03:30:34;4.95;;;1.90;;
29384;SDS011;16367;48.736;9.218;2024-03-23T03:32:34;4.28;;;1.55;;
29384;SDS011;16367;48.736;9.218;2024-03-23T03:34:35;3.75;;;1.70;;
29384;SDS011;16367;48.736;9.218;2024-03-23T03:36:36;4.95;;;1.80;;
29384;SDS011;16367;48.736;9.218;2024-03-23T03:38:36;5.30;;;1.98;;
29384;SDS011;16367;48.736;9.218;2024-03-23T03:40:37;5.35;;;1.88;;
29384;SDS011;16367;48.736;9.218;2024-03-23T03:42:38;4.38;;;2.20;;
29384;SDS011;16367;48.736;9.218;2024-03-23T03:44:40;4.28;;;1.67;;
29384;SDS011;16367;48.736;9.218;2024-03-23T03:46:41;4.97;;;2.08;;
29384;SDS011;16367;48.736;9.218;2024-03-23T03:48:41;6.60;;;2.15;;
29384;SDS011;16367;48.736;9.218;2024-03-23T03:50:42;5.72;;;2.50;;
29384;SDS011;16367;48.736;9.218;2024-03-23T03:52:42;3.75;;;1.73;;
29384;SDS011;16367;48.736;9.218;2024-03-23T03:54:43;4.53;;;2.05;;
29384;SDS011;16367;48.736;9.218;2024-03-23T03:56:44;4.10;;;1.73;;
29384;SDS011;16367;48.736;9.218;2024-03-23T03:58:45;3.97;;;1.52;;
29384;SDS011;16367;48.736;9.218;2024-03-23T04:00:47;4.75;;;1.73;;
29384;SDS011;16367;48.736;9.218;2024-03-23T04:02:47;5.03;;;1.60;;
29384;SDS011;16367;48.736;9.218;2024-03-23T04:04:48;4.30;;;1.65;;
29384;SDS011;16367;48.736;9.218;2024-03-23T04:06:49;5.00;;;2.00;;
29384;SDS011;16367;48.736;9.218;2024-03-23T04:08:50;4.57;;;1.70;;
29384;SDS011;16367;48.736;9.218;2024-03-23T04:10:50;6.00;;;1.80;;
29384;SDS011;16367;48.736;9.218;2024-03-23T04:12:51;6.50;;;1.92;;
29384;SDS011;16367;48.736;9.218;2024-03-23T04:14:52;4.57;;;1.50;;
29384;SDS011;16367;48.736;9.218;2024-03-23T04:16:54;5.78;;;2.08;;
29384;SDS011;16367;48.736;9.218;2024-03-23T04:18:54;4.82;;;2.10;;
29384;SDS011;16367;48.736;9.218;2024-03-23T04:20:55;4.65;;;1.67;;
29384;SDS011;16367;48.736;9.218;2024-03-23T04:22:56;6.13;;;1.92;;
29384;SDS011;16367;48.736;9.218;2024-03-23T04:24:56;3.92;;;1.73;;
29384;SDS011;16367;48.736;9.218;2024-03-23T04:26:57;6.90;;;2.10;;
29384;SDS011;16367;48.736;9.218;2024-03-23T04:28:58;4.15;;;1.45;;
29384;SDS011;16367;48.736;9.218;2024-03-23T04:31:02;4.35;;;1.88;;
29384;SDS011;16367;48.736;9.218;2024-03-23T04:33:05;5.07;;;2.00;;
29384;SDS011;16367;48.736;9.218;2024-03-23T04:35:06;5.82;;;1.83;;
29384;SDS011;16367;48.736;9.218;2024-03-23T04:37:07;6.15;;;2.08;;
29384;SDS011;16367;48.736;9.218;2024-03-23T04:39:08;5.20;;;1.88;;
29384;SDS011;16367;48.736;9.218;2024-03-23T04:41:08;4.80;;;2.10;;
29384;SDS011;16367;48.736;9.218;2024-03-23T04:43:09;4.85;;;2.13;;
29384;SDS011;16367;48.736;9.218;2024-03-23T04:45:10;4.15;;;1.70;;
29384;SDS011;16367;48.736;9.218;2024-03-23T04:47:10;6.93;;;2.10;;
29384;SDS011;16367;48.736;9.218;2024-03-23T04:49:12;6.07;;;1.67;;
29384;SDS011;16367;48.736;9.218;2024-03-23T04:51:19;4.78;;;1.92;;
29384;SDS011;16367;48.736;9.218;2024-03-23T04:53:20;6.60;;;1.90;;
29384;SDS011;16367;48.736;9.218;2024-03-23T04:55:21;5.85;;;2.33;;
29384;SDS011;16367;48.736;9.218;2024-03-23T04:57:22;5.07;;;2.03;;
29384;SDS011;16367;48.736;9.218;2024-03-23T04:59:23;7.15;;;1.80;;
29384;SDS011;16367;48.736;9.218;2024-03-23T05:01:23;5.07;;;2.10;;
29384;SDS011;16367;48.736;9.218;2024-03-23T05:03:24;7.07;;;2.78;;
29384;SDS011;16367;48.736;9.218;2024-03-23T05:05:26;8.80;;;3.38;;
29384;SDS011;16367;48.736;9.218;2024-03-23T05:07:27;8.65;;;3.58;;
29384;SDS011;16367;48.736;9.218;2024-03-23T05:09:27;9.50;;;3.63;;
29384;SDS011;16367;48.736;9.218;2024-03-23T05:11:28;9.35;;;4.13;;
29384;SDS011;16367;48.736;9.218;2024-03-23T05:13:29;10.00;;;5.10;;
29384;SDS011;16367;48.736;9.218;2024-03-23T05:15:29;11.70;;;5.53;;
29384;SDS011;16367;48.736;9.218;2024-03-23T05:17:30;11.82;;;6.07;;
29384;SDS011;16367;48.736;9.218;2024-03-23T05:19:31;10.70;;;5.95;;
29384;SDS011;16367;48.736;9.218;2024-03-23T05:21:33;14.55;;;7.57;;
29384;SDS011;16367;48.736;9.218;2024-03-23T05:23:34;13.75;;;6.88;;
29384;SDS011;16367;48.736;9.218;2024-03-23T05:25:34;13.55;;;7.15;;
29384;SDS011;16367;48.736;9.218;2024-03-23T05:27:35;17.15;;;7.72;;
29384;SDS011;16367;48.736;9.218;2024-03-23T05:29:36;13.68;;;7.18;;
29384;SDS011;16367;48.736;9.218;2024-03-23T05:31:36;16.08;;;7.22;;
29384;SDS011;16367;48.736;9.218;2024-03-23T05:33:37;15.90;;;8.00;;
29384;SDS011;16367;48.736;9.218;2024-03-23T05:35:38;17.67;;;8.27;;
29384;SDS011;16367;48.736;9.218;2024-03-23T05:37:40;16.50;;;7.50;;
29384;SDS011;16367;48.736;9.218;2024-03-23T05:39:40;14.30;;;7.13;;
29384;SDS011;16367;48.736;9.218;2024-03-23T05:41:41;16.38;;;7.82;;
29384;SDS011;16367;48.736;9.218;2024-03-23T05:43:42;16.92;;;8.00;;
29384;SDS011;16367;48.736;9.218;2024-03-23T05:45:43;15.88;;;7.75;;
29384;SDS011;16367;48.736;9.218;2024-03-23T05:47:43;15.77;;;7.15;;
29384;SDS011;16367;48.736;9.218;2024-03-23T05:49:45;15.00;;;7.65;;
29384;SDS011;16367;48.736;9.218;2024-03-23T05:51:46;15.75;;;7.47;;
29384;SDS011;16367;48.736;9.218;2024-03-23T05:53:49;15.57;;;7.22;;
29384;SDS011;16367;48.736;9.218;2024-03-23T05:55:50;13.25;;;6.22;;
29384;SDS011;16367;48.736;9.218;2024-03-23T05:57:51;14.02;;;6.20;;
29384;SDS011;16367;48.736;9.218;2024-03-23T05:59:52;12.25;;;5.32;;
29384;SDS011;16367;48.736;9.218;2024-03-23T06:01:53;11.57;;;4.78;;
29384;SDS011;16367;48.736;9.218;2024-03-23T06:03:53;12.50;;;5.93;;
29384;SDS011;16367;48.736;9.218;2024-03-23T06:05:54;12.35;;;5.53;;
29384;SDS011;16367;48.736;9.218;2024-03-23T06:07:55;12.32;;;5.30;;
29384;SDS011;16367;48.736;9.218;2024-03-23T06:09:57;16.00;;;6.88;;
29384;SDS011;16367;48.736;9.218;2024-03-23T06:11:58;11.82;;;6.05;;
29384;SDS011;16367;48.736;9.218;2024-03-23T06:13:59;15.40;;;6.35;;
29384;SDS011;16367;48.736;9.218;2024-03-23T06:15:59;11.38;;;4.97;;
29384;SDS011;16367;48.736;9.218;2024-03-23T06:18:00;8.90;;;4.10;;
29384;SDS011;16367;48.736;9.218;2024-03-23T06:20:01;7.57;;;3.28;;
29384;SDS011;16367;48.736;9.218;2024-03-23T06:22:02;6.60;;;2.50;;
29384;SDS011;16367;48.736;9.218;2024-03-23T06:24:02;7.47;;;2.65;;
29384;SDS011;16367;48.736;9.218;2024-03-23T06:26:05;6.03;;;2.22;;
29384;SDS011;16367;48.736;9.218;2024-03-23T06:28:06;4.85;;;1.73;;
29384;SDS011;16367;48.736;9.218;2024-03-23T06:30:07;6.45;;;2.08;;
29384;SDS011;16367;48.736;9.218;2024-03-23T06:32:08;6.63;;;2.22;;
29384;SDS011;16367;48.736;9.218;2024-03-23T06:34:08;4.22;;;1.60;;
29384;SDS011;16367;48.736;9.218;2024-03-23T06:36:09;4.03;;;1.38;;
29384;SDS011;16367;48.736;9.218;2024-03-23T06:38:11;3.85;;;1.30;;
29384;SDS011;16367;48.736;9.218;2024-03-23T06:40:11;3.70;;;1.23;;
29384;SDS011;16367;48.736;9.218;2024-03-23T06:42:13;2.88;;;1.00;;
29384;SDS011;16367;48.736;9.218;2024-03-23T06:44:14;2.33;;;0.88;;
29384;SDS011;16367;48.736;9.218;2024-03-23T06:46:15;3.72;;;0.90;;
29384;SDS011;16367;48.736;9.218;2024-03-23T06:48:15;2.45;;;0.80;;
29384;SDS011;16367;48.736;9.218;2024-03-23T06:50:16;0.98;;;0.30;;
29384;SDS011;16367;48.736;9.218;2024-03-23T06:52:17;1.95;;;0.57;;
29384;SDS011;16367;48.736;9.218;2024-03-23T06:54:17;1.95;;;0.50;;
29384;SDS011;16367;48.736;9.218;2024-03-23T06:56:19;0.63;;;0.25;;
29384;SDS011;16367;48.736;9.218;2024-03-23T06:58:22;1.00;;;0.30;;
29384;SDS011;16367;48.736;9.218;2024-03-23T07:00:24;0.73;;;0.30;;
29384;SDS011;16367;48.736;9.218;2024-03-23T07:02:24;2.20;;;0.45;;
29384;SDS011;16367;48.736;9.218;2024-03-23T07:04:25;1.63;;;0.43;;
29384;SDS011;16367;48.736;9.218;2024-03-23T07:06:26;1.65;;;0.47;;
29384;SDS011;16367;48.736;9.218;2024-03-23T07:08:26;2.00;;;0.50;;
29384;SDS011;16367;48.736;9.218;2024-03-23T07:10:27;2.22;;;0.50;;
29384;SDS011;16367;48.736;9.218;2024-03-23T07:12:28;1.65;;;0.50;;
29384;SDS011;16367;48.736;9.218;2024-03-23T07:14:30;2.03;;;0.57;;
29384;SDS011;16367;48.736;9.218;2024-03-23T07:16:30;1.73;;;0.40;;
29384;SDS011;16367;48.736;9.218;2024-03-23T07:18:31;1.27;;;0.40;;
29384;SDS011;16367;48.736;9.218;2024-03-23T07:20:32;1.08;;;0.40;;
29384;SDS011;16367;48.736;9.218;2024-03-23T07:22:32;1.00;;;0.40;;
29384;SDS011;16367;48.736;9.218;2024-03-23T07:24:33;1.45;;;0.43;;
29384;SDS011;16367;48.736;9.218;2024-03-23T07:26:34;1.20;;;0.35;;
29384;SDS011;16367;48.736;9.218;2024-03-23T07:28:34;0.57;;;0.20;;
29384;SDS011;16367;48.736;9.218;2024-03-23T07:30:37;1.13;;;0.32;;
29384;SDS011;16367;48.736;9.218;2024-03-23T07:32:37;1.33;;;0.35;;
29384;SDS011;16367;48.736;9.218;2024-03-23T07:34:38;0.28;;;0.15;;
29384;SDS011;16367;48.736;9.218;2024-03-23T07:36:39;1.17;;;0.40;;
29384;SDS011;16367;48.736;9.218;2024-03-23T07:38:40;0.38;;;0.22;;
29384;SDS011;16367;48.736;9.218;2024-03-23T07:40:41;0.22;;;0.13;;
29384;SDS011;16367;48.736;9.218;2024-03-23T07:42:42;0.52;;;0.30;;
29384;SDS011;16367;48.736;9.218;2024-03-23T07:44:42;0.47;;;0.20;;
29384;SDS011;16367;48.736;9.218;2024-03-23T07:46:44;0.65;;;0.30;;
29384;SDS011;16367;48.736;9.218;2024-03-23T07:48:45;0.52;;;0.20;;
29384;SDS011;16367;48.736;9.218;2024-03-23T07:50:46;1.23;;;0.35;;
29384;SDS011;16367;48.736;9.218;2024-03-23T07:52:46;0.93;;;0.35;;
29384;SDS011;16367;48.736;9.218;2024-03-23T07:54:47;1.63;;;0.38;;
29384;SDS011;16367;48.736;9.218;2024-03-23T07:56:47;1.58;;;0.50;;
29384;SDS011;16367;48.736;9.218;2024-03-23T07:58:48;1.10;;;0.38;;
29384;SDS011;16367;48.736;9.218;2024-03-23T08:00:49;1.48;;;0.40;;
29384;SDS011;16367;48.736;9.218;2024-03-23T08:02:52;1.13;;;0.40;;
29384;SDS011;16367;48.736;9.218;2024-03-23T08:04:52;2.03;;;0.77;;
29384;SDS011;16367;48.736;9.218;2024-03-23T08:06:53;1.70;;;0.35;;
29384;SDS011;16367;48.736;9.218;2024-03-23T08:08:54;1.60;;;0.40;;
29384;SDS011;16367;48.736;9.218;2024-03-23T08:10:56;1.00;;;0.22;;
29384;SDS011;16367;48.736;9.218;2024-03-23T08:12:56;0.80;;;0.30;;
29384;SDS011;16367;48.736;9.218;2024-03-23T08:14:57;0.82;;;0.30;;
29384;SDS011;16367;48.736;9.218;2024-03-23T08:16:58;0.80;;;0.25;;
29384;SDS011;16367;48.736;9.218;2024-03-23T08:19:00;1.15;;;0.30;;
29384;SDS011;16367;48.736;9.218;2024-03-23T08:21:01;1.13;;;0.32;;
29384;SDS011;16367;48.736;9.218;2024-03-23T08:23:02;0.98;;;0.50;;
29384;SDS011;16367;48.736;9.218;2024-03-23T08:25:03;1.08;;;0.38;;
29384;SDS011;16367;48.736;9.218;2024-03-23T08:27:05;1.15;;;0.40;;
29384;SDS011;16367;48.736;9.218;2024-03-23T08:29:05;2.13;;;0.50;;
29384;SDS011;16367;48.736;9.218;2024-03-23T08:31:06;1.25;;;0.40;;
29384;SDS011;16367;48.736;9.218;2024-03-23T08:33:08;1.25;;;0.40;;
29384;SDS011;16367;48.736;9.218;2024-03-23T08:35:10;1.25;;;0.60;;
29384;SDS011;16367;48.736;9.218;2024-03-23T08:37:11;3.67;;;0.90;;
29384;SDS011;16367;48.736;9.218;2024-03-23T08:39:11;1.25;;;0.45;;
29384;SDS011;16367;48.736;9.218;2024-03-23T08:41:12;2.53;;;0.80;;
29384;SDS011;16367;48.736;9.218;2024-03-23T08:43:13;2.53;;;0.80;;
29384;SDS011;16367;48.736;9.218;2024-03-23T08:45:14;2.15;;;0.70;;
29384;SDS011;16367;48.736;9.218;2024-03-23T08:47:14;1.95;;;0.68;;
29384;SDS011;16367;48.736;9.218;2024-03-23T08:49:15;2.42;;;0.70;;
29384;SDS011;16367;48.736;9.218;2024-03-23T08:51:17;2.40;;;0.70;;
29384;SDS011;16367;48.736;9.218;2024-03-23T08:53:18;2.65;;;0.70;;
29384;SDS011;16367;48.736;9.218;2024-03-23T08:55:18;3.45;;;0.85;;
29384;SDS011;16367;48.736;9.218;2024-03-23T08:57:19;3.15;;;0.80;;
29384;SDS011;16367;48.736;9.218;2024-03-23T08:59:20;2.90;;;0.80;;
29384;SDS011;16367;48.736;9.218;2024-03-23T09:01:20;2.80;;;0.90;;
29384;SDS011;16367;48.736;9.218;2024-03-23T09:03:21;2.97;;;1.00;;
29384;SDS011;16367;48.736;9.218;2024-03-23T09:05:22;3.15;;;0.90;;
29384;SDS011;16367;48.736;9.218;2024-03-23T09:07:24;2.72;;;0.85;;
29384;SDS011;16367;48.736;9.218;2024-03-23T09:09:25;4.80;;;1.00;;
29384;SDS011;16367;48.736;9.218;2024-03-23T09:11:25;3.72;;;1.00;;
29384;SDS011;16367;48.736;9.218;2024-03-23T09:13:26;3.00;;;0.98;;
29384;SDS011;16367;48.736;9.218;2024-03-23T09:15:27;3.33;;;0.77;;
29384;SDS011;16367;48.736;9.218;2024-03-23T09:17:28;2.92;;;0.90;;
29384;SDS011;16367;48.736;9.218;2024-03-23T09:19:28;3.30;;;1.15;;
29384;SDS011;16367;48.736;9.218;2024-03-23T09:21:29;3.17;;;0.90;;
29384;SDS011;16367;48.736;9.218;2024-03-23T09:23:31;3.97;;;1.25;;
29384;SDS011;16367;48.736;9.218;2024-03-23T09:25:32;4.75;;;1.35;;
29384;SDS011;16367;48.736;9.218;2024-03-23T09:27:36;4.72;;;1.30;;
29384;SDS011;16367;48.736;9.218;2024-03-23T09:29:37;5.18;;;1.52;;
29384;SDS011;16367;48.736;9.218;2024-03-23T09:31:38;3.88;;;1.40;;
29384;SDS011;16367;48.736;9.218;2024-03-23T09:33:38;8.80;;;2.00;;
29384;SDS011;16367;48.736;9.218;2024-03-23T09:35:39;4.47;;;1.40;;
29384;SDS011;16367;48.736;9.218;2024-03-23T09:37:41;6.78;;;1.80;;
29384;SDS011;16367;48.736;9.218;2024-03-23T09:39:43;5.45;;;1.73;;
29384;SDS011;16367;48.736;9.218;2024-03-23T09:41:44;7.20;;;1.85;;
29384;SDS011;16367;48.736;9.218;2024-03-23T09:43:45;6.40;;;1.80;;
29384;SDS011;16367;48.736;9.218;2024-03-23T09:45:45;6.40;;;1.75;;
29384;SDS011;16367;48.736;9.218;2024-03-23T09:47:46;4.38;;;1.88;;
29384;SDS011;16367;48.736;9.218;2024-03-23T09:49:47;6.72;;;1.92;;
29384;SDS011;16367;48.736;9.218;2024-03-23T09:51:48;6.78;;;1.75;;
29384;SDS011;16367;48.736;9.218;2024-03-23T09:53:49;8.38;;;2.00;;
29384;SDS011;16367;48.736;9.218;2024-03-23T09:55:52;9.65;;;1.70;;
29384;SDS011;16367;48.736;9.218;2024-03-23T09:57:52;6.63;;;2.28;;
29384;SDS011;16367;48.736;9.218;2024-03-23T09:59:53;8.70;;;1.95;;
29384;SDS011;16367;48.736;9.218;2024-03-23T10:01:54;7.30;;;2.03;;
29384;SDS011;16367;48.736;9.218;2024-03-23T10:03:55;5.03;;;1.95;;
29384;SDS011;16367;48.736;9.218;2024-03-23T10:06:00;6.55;;;1.70;;
29384;SDS011;16367;48.736;9.218;2024-03-23T10:08:01;6.00;;;1.92;;
29384;SDS011;16367;48.736;9.218;2024-03-23T10:10:18;5.40;;;1.83;;
29384;SDS011;16367;48.736;9.218;2024-03-23T10:12:20;6.95;;;2.20;;
29384;SDS011;16367;48.736;9.218;2024-03-23T10:14:25;6.18;;;2.00;;
29384;SDS011;16367;48.736;9.218;2024-03-23T10:16:29;5.40;;;1.65;;
29384;SDS011;16367;48.736;9.218;2024-03-23T10:18:30;5.78;;;1.73;;
29384;SDS011;16367;48.736;9.218;2024-03-23T10:20:30;6.70;;;1.90;;
29384;SDS011;16367;48.736;9.218;2024-03-23T10:22:31;4.70;;;1.70;;
29384;SDS011;16367;48.736;9.218;2024-03-23T10:24:37;5.97;;;1.67;;
29384;SDS011;16367;48.736;9.218;2024-03-23T10:26:38;7.35;;;2.03;;
29384;SDS011;16367;48.736;9.218;2024-03-23T10:28:44;10.25;;;2.05;;
29384;SDS011;16367;48.736;9.218;2024-03-23T10:30:51;6.03;;;1.70;;
29384;SDS011;16367;48.736;9.218;2024-03-23T10:32:52;5.30;;;1.85;;
29384;SDS011;16367;48.736;9.218;2024-03-23T10:35:16;7.40;;;2.13;;
29384;SDS011;16367;48.736;9.218;2024-03-23T10:37:17;6.55;;;1.85;;
29384;SDS011;16367;48.736;9.218;2024-03-23T10:39:18;4.72;;;1.95;;
29384;SDS011;16367;48.736;9.218;2024-03-23T10:41:19;7.10;;;2.17;;
29384;SDS011;16367;48.736;9.218;2024-03-23T10:43:20;5.70;;;1.60;;
29384;SDS011;16367;48.736;9.218;2024-03-23T10:45:22;4.85;;;1.67;;
29384;SDS011;16367;48.736;9.218;2024-03-23T10:47:23;6.22;;;2.22;;
29384;SDS011;16367;48.736;9.218;2024-03-23T10:49:23;6.28;;;1.60;;
29384;SDS011;16367;48.736;9.218;2024-03-23T10:51:24;5.82;;;2.00;;
29384;SDS011;16367;48.736;9.218;2024-03-23T10:53:25;7.30;;;2.45;;
29384;SDS011;16367;48.736;9.218;2024-03-23T10:55:27;5.43;;;2.00;;
29384;SDS011;16367;48.736;9.218;2024-03-23T10:57:30;7.47;;;1.95;;
29384;SDS011;16367;48.736;9.218;2024-03-23T10:59:35;5.40;;;2.30;;
29384;SDS011;16367;48.736;9.218;2024-03-23T11:01:44;6.10;;;1.92;;
29384;SDS011;16367;48.736;9.218;2024-03-23T11:03:54;7.15;;;1.88;;
29384;SDS011;16367;48.736;9.218;2024-03-23T11:05:55;4.18;;;1.40;;
29384;SDS011;16367;48.736;9.218;2024-03-23T11:07:55;5.53;;;1.50;;
29384;SDS011;16367;48.736;9.218;2024-03-23T11:09:56;4.97;;;1.50;;
29384;SDS011;16367;48.736;9.218;2024-03-23T11:11:57;5.20;;;1.88;;
29384;SDS011;16367;48.736;9.218;2024-03-23T11:13:58;5.72;;;1.77;;
29384;SDS011;16367;48.736;9.218;2024-03-23T11:16:01;7.18;;;1.70;;
29384;SDS011;16367;48.736;9.218;2024-03-23T11:18:20;5.10;;;1.42;;
29384;SDS011;16367;48.736;9.218;2024-03-23T11:20:21;4.97;;;1.33;;
29384;SDS011;16367;48.736;9.218;2024-03-23T11:22:38;5.20;;;1.60;;
29384;SDS011;16367;48.736;9.218;2024-03-23T11:24:43;4.97;;;1.38;;
29384;SDS011;16367;48.736;9.218;2024-03-23T11:26:50;5.95;;;1.67;;
29384;SDS011;16367;48.736;9.218;2024-03-23T11:28:51;4.57;;;1.50;;
29384;SDS011;16367;48.736;9.218;2024-03-23T11:31:09;5.18;;;1.60;;
29384;SDS011;16367;48.736;9.218;2024-03-23T11:33:10;5.38;;;1.70;;
29384;SDS011;16367;48.736;9.218;2024-03-23T11:35:25;4.35;;;1.50;;
29384;SDS011;16367;48.736;9.218;2024-03-23T11:37:27;5.90;;;1.75;;
29384;SDS011;16367;48.736;9.218;2024-03-23T11:39:27;3.70;;;1.60;;
29384;SDS011;16367;48.736;9.218;2024-03-23T11:41:28;5.18;;;1.48;;
29384;SDS011;16367;48.736;9.218;2024-03-23T11:43:29;6.15;;;1.73;;
29384;SDS011;16367;48.736;9.218;2024-03-23T11:45:34;3.65;;;1.38;;
29384;SDS011;16367;48.736;9.218;2024-03-23T11:47:35;5.22;;;1.40;;
29384;SDS011;16367;48.736;9.218;2024-03-23T11:49:36;5.88;;;1.40;;
29384;SDS011;16367;48.736;9.218;2024-03-23T11:51:38;5.20;;;1.25;;
29384;SDS011;16367;48.736;9.218;2024-03-23T11:53:39;5.30;;;1.02;;
29384;SDS011;16367;48.736;9.218;2024-03-23T11:55:43;8.18;;;1.27;;
29384;SDS011;16367;48.736;9.218;2024-03-23T11:57:46;7.13;;;1.40;;
29384;SDS011;16367;48.736;9.218;2024-03-23T11:59:46;2.83;;;1.00;;
29384;SDS011;16367;48.736;9.218;2024-03-23T12:01:47;3.03;;;0.98;;
29384;SDS011;16367;48.736;9.218;2024-03-23T12:03:48;8.50;;;1.30;;
29384;SDS011;16367;48.736;9.218;2024-03-23T12:05:49;5.28;;;1.30;;
29384;SDS011;16367;48.736;9.218;2024-03-23T12:07:51;5.10;;;0.90;;
29384;SDS011;16367;48.736;9.218;2024-03-23T12:10:02;3.88;;;0.98;;
29384;SDS011;16367;48.736;9.218;2024-03-23T12:12:07;4.47;;;0.93;;
29384;SDS011;16367;48.736;9.218;2024-03-23T12:14:09;4.18;;;1.30;;
29384;SDS011;16367;48.736;9.218;2024-03-23T12:16:10;4.10;;;0.75;;
29384;SDS011;16367;48.736;9.218;2024-03-23T12:18:12;2.58;;;0.75;;
29384;SDS011;16367;48.736;9.218;2024-03-23T12:20:13;5.00;;;1.08;;
29384;SDS011;16367;48.736;9.218;2024-03-23T12:22:13;3.55;;;0.98;;
29384;SDS011;16367;48.736;9.218;2024-03-23T12:24:16;3.60;;;0.90;;
29384;SDS011;16367;48.736;9.218;2024-03-23T12:26:16;5.80;;;1.00;;
29384;SDS011;16367;48.736;9.218;2024-03-23T12:28:17;3.97;;;0.93;;
29384;SDS011;16367;48.736;9.218;2024-03-23T12:30:17;4.25;;;1.00;;
29384;SDS011;16367;48.736;9.218;2024-03-23T12:32:18;5.65;;;0.98;;
29384;SDS011;16367;48.736;9.218;2024-03-23T12:34:19;6.40;;;1.35;;
29384;SDS011;16367;48.736;9.218;2024-03-23T12:36:19;3.50;;;1.00;;
29384;SDS011;16367;48.736;9.218;2024-03-23T12:38:20;4.43;;;0.90;;
29384;SDS011;16367;48.736;9.218;2024-03-23T12:40:22;7.72;;;1.27;;
29384;SDS011;16367;48.736;9.218;2024-03-23T12:42:23;4.15;;;1.10;;
29384;SDS011;16367;48.736;9.218;2024-03-23T12:44:24;6.40;;;1.85;;
29384;SDS011;16367;48.736;9.218;2024-03-23T12:46:24;5.10;;;1.02;;
29384;SDS011;16367;48.736;9.218;2024-03-23T12:48:25;9.05;;;1.60;;
29384;SDS011;16367;48.736;9.218;2024-03-23T12:50:26;6.63;;;1.55;;
29384;SDS011;16367;48.736;9.218;2024-03-23T12:52:26;4.68;;;1.20;;
29384;SDS011;16367;48.736;9.218;2024-03-23T12:54:27;4.05;;;1.00;;
29384;SDS011;16367;48.736;9.218;2024-03-23T12:56:29;4.72;;;1.20;;
29384;SDS011;16367;48.736;9.218;2024-03-23T12:58:30;5.38;;;1.20;;
29384;SDS011;16367;48.736;9.218;2024-03-23T13:00:30;4.80;;;1.17;;
29384;SDS011;16367;48.736;9.218;2024-03-23T13:02:31;4.95;;;1.58;;
29384;SDS011;16367;48.736;9.218;2024-03-23T13:04:32;6.22;;;1.65;;